sensor_id;sensor_type;location;lat;lon;timestamp;P1;durP1;ratioP1;P2;durP2;ratioP2
77322;SDS011;66384;51.052;9.850;2024-02-15T00:01:20;4.10;;;3.10;;
77322;SDS011;66384;51.052;9.850;2024-02-15T00:03:56;3.90;;;3.10;;
77322;SDS011;66384;51.052;9.850;2024-02-15T00:06:33;5.00;;;3.30;;
77322;SDS011;66384;51.052;9.850;2024-02-15T00:09:09;4.40;;;3.30;;
77322;SDS011;66384;51.052;9.850;2024-02-15T00:11:46;3.10;;;2.50;;
77322;SDS011;66384;51.052;9.850;2024-02-15T00:14:24;6.90;;;3.40;;
77322;SDS011;66384;51.052;9.850;2024-02-15T00:17:02;4.80;;;3.70;;
77322;SDS011;66384;51.052;9.850;2024-02-15T00:19:38;5.00;;;3.70;;
77322;SDS011;66384;51.052;9.850;2024-02-15T00:22:15;5.90;;;3.20;;
77322;SDS011;66384;51.052;9.850;2024-02-15T00:24:52;5.00;;;3.70;;
77322;SDS011;66384;51.052;9.850;2024-02-15T00:27:30;5.10;;;3.30;;
77322;SDS011;66384;51.052;9.850;2024-02-15T00:32:42;4.60;;;3.10;;
77322;SDS011;66384;51.052;9.850;2024-02-15T00:35:20;5.90;;;4.00;;
77322;SDS011;66384;51.052;9.850;2024-02-15T00:37:58;5.00;;;3.50;;
77322;SDS011;66384;51.052;9.850;2024-02-15T00:40:37;6.50;;;3.80;;
77322;SDS011;66384;51.052;9.850;2024-02-15T00:43:14;8.40;;;3.60;;
77322;SDS011;66384;51.052;9.850;2024-02-15T00:45:50;5.10;;;3.30;;
77322;SDS011;66384;51.052;9.850;2024-02-15T00:48:27;5.60;;;3.50;;
77322;SDS011;66384;51.052;9.850;2024-02-15T00:51:04;5.00;;;3.90;;
77322;SDS011;66384;51.052;9.850;2024-02-15T00:53:41;4.90;;;3.60;;
77322;SDS011;66384;51.052;9.850;2024-02-15T00:56:18;5.60;;;3.80;;
77322;SDS011;66384;51.052;9.850;2024-02-15T00:58:55;5.90;;;4.30;;
77322;SDS011;66384;51.052;9.850;2024-02-15T01:01:32;5.10;;;3.40;;
77322;SDS011;66384;51.052;9.850;2024-02-15T01:04:09;5.40;;;3.60;;
77322;SDS011;66384;51.052;9.850;2024-02-15T01:06:45;5.50;;;3.80;;
77322;SDS011;66384;51.052;9.850;2024-02-15T01:09:23;5.30;;;3.70;;
77322;SDS011;66384;51.052;9.850;2024-02-15T01:12:00;5.20;;;3.60;;
77322;SDS011;66384;51.052;9.850;2024-02-15T01:14:37;5.60;;;4.10;;
77322;SDS011;66384;51.052;9.850;2024-02-15T01:17:14;5.60;;;4.20;;
77322;SDS011;66384;51.052;9.850;2024-02-15T01:19:51;5.20;;;3.60;;
77322;SDS011;66384;51.052;9.850;2024-02-15T01:22:27;4.40;;;3.40;;
77322;SDS011;66384;51.052;9.850;2024-02-15T01:25:04;5.10;;;3.80;;
77322;SDS011;66384;51.052;9.850;2024-02-15T01:27:41;5.20;;;3.90;;
77322;SDS011;66384;51.052;9.850;2024-02-15T01:30:18;6.60;;;3.80;;
77322;SDS011;66384;51.052;9.850;2024-02-15T01:32:55;5.80;;;4.20;;
77322;SDS011;66384;51.052;9.850;2024-02-15T01:35:32;5.90;;;4.00;;
77322;SDS011;66384;51.052;9.850;2024-02-15T01:38:09;6.90;;;3.70;;
77322;SDS011;66384;51.052;9.850;2024-02-15T01:40:45;6.00;;;4.20;;
77322;SDS011;66384;51.052;9.850;2024-02-15T01:45:57;6.10;;;4.00;;
77322;SDS011;66384;51.052;9.850;2024-02-15T01:48:36;5.80;;;3.90;;
77322;SDS011;66384;51.052;9.850;2024-02-15T01:51:14;7.30;;;4.00;;
77322;SDS011;66384;51.052;9.850;2024-02-15T01:53:51;4.90;;;3.60;;
77322;SDS011;66384;51.052;9.850;2024-02-15T01:56:30;4.60;;;3.90;;
77322;SDS011;66384;51.052;9.850;2024-02-15T01:59:07;5.20;;;3.60;;
77322;SDS011;66384;51.052;9.850;2024-02-15T02:01:44;6.70;;;3.60;;
77322;SDS011;66384;51.052;9.850;2024-02-15T02:04:21;6.00;;;3.60;;
77322;SDS011;66384;51.052;9.850;2024-02-15T02:06:57;5.70;;;3.80;;
77322;SDS011;66384;51.052;9.850;2024-02-15T02:12:08;7.00;;;3.90;;
77322;SDS011;66384;51.052;9.850;2024-02-15T02:14:45;6.80;;;3.60;;
77322;SDS011;66384;51.052;9.850;2024-02-15T02:17:22;8.40;;;4.20;;
77322;SDS011;66384;51.052;9.850;2024-02-15T02:19:59;5.00;;;3.50;;
77322;SDS011;66384;51.052;9.850;2024-02-15T02:22:39;7.90;;;4.00;;
77322;SDS011;66384;51.052;9.850;2024-02-15T02:25:17;5.60;;;3.70;;
77322;SDS011;66384;51.052;9.850;2024-02-15T02:27:57;5.80;;;3.40;;
77322;SDS011;66384;51.052;9.850;2024-02-15T02:33:08;6.10;;;3.50;;
77322;SDS011;66384;51.052;9.850;2024-02-15T02:35:50;7.70;;;4.20;;
77322;SDS011;66384;51.052;9.850;2024-02-15T02:38:28;8.60;;;4.00;;
77322;SDS011;66384;51.052;9.850;2024-02-15T02:41:05;5.40;;;3.60;;
77322;SDS011;66384;51.052;9.850;2024-02-15T02:43:42;5.90;;;3.70;;
77322;SDS011;66384;51.052;9.850;2024-02-15T02:46:18;7.70;;;4.10;;
77322;SDS011;66384;51.052;9.850;2024-02-15T02:48:55;6.50;;;3.70;;
77322;SDS011;66384;51.052;9.850;2024-02-15T02:51:32;6.70;;;3.80;;
77322;SDS011;66384;51.052;9.850;2024-02-15T02:54:08;7.30;;;4.70;;
77322;SDS011;66384;51.052;9.850;2024-02-15T02:56:45;5.60;;;3.80;;
77322;SDS011;66384;51.052;9.850;2024-02-15T02:59:22;6.00;;;4.00;;
77322;SDS011;66384;51.052;9.850;2024-02-15T03:01:59;6.00;;;3.90;;
77322;SDS011;66384;51.052;9.850;2024-02-15T03:04:36;6.20;;;4.50;;
77322;SDS011;66384;51.052;9.850;2024-02-15T03:07:12;5.90;;;3.90;;
77322;SDS011;66384;51.052;9.850;2024-02-15T03:09:49;5.80;;;4.30;;
77322;SDS011;66384;51.052;9.850;2024-02-15T03:12:25;7.70;;;4.30;;
77322;SDS011;66384;51.052;9.850;2024-02-15T03:15:02;7.10;;;3.70;;
77322;SDS011;66384;51.052;9.850;2024-02-15T03:17:42;8.00;;;3.70;;
77322;SDS011;66384;51.052;9.850;2024-02-15T03:20:20;5.60;;;3.40;;
77322;SDS011;66384;51.052;9.850;2024-02-15T03:22:57;5.70;;;4.00;;
77322;SDS011;66384;51.052;9.850;2024-02-15T03:25:34;4.80;;;3.30;;
77322;SDS011;66384;51.052;9.850;2024-02-15T03:28:10;6.20;;;4.00;;
77322;SDS011;66384;51.052;9.850;2024-02-15T03:30:47;5.10;;;3.60;;
77322;SDS011;66384;51.052;9.850;2024-02-15T03:33:24;7.70;;;4.00;;
77322;SDS011;66384;51.052;9.850;2024-02-15T03:36:05;6.30;;;4.10;;
77322;SDS011;66384;51.052;9.850;2024-02-15T03:38:42;7.10;;;4.30;;
77322;SDS011;66384;51.052;9.850;2024-02-15T03:41:19;5.50;;;3.70;;
77322;SDS011;66384;51.052;9.850;2024-02-15T03:43:56;7.70;;;4.80;;
77322;SDS011;66384;51.052;9.850;2024-02-15T03:46:33;6.00;;;4.40;;
77322;SDS011;66384;51.052;9.850;2024-02-15T03:49:09;7.60;;;4.00;;
77322;SDS011;66384;51.052;9.850;2024-02-15T03:51:46;7.60;;;4.00;;
77322;SDS011;66384;51.052;9.850;2024-02-15T03:54:25;7.20;;;4.20;;
77322;SDS011;66384;51.052;9.850;2024-02-15T03:57:02;6.20;;;4.70;;
77322;SDS011;66384;51.052;9.850;2024-02-15T03:59:41;14.70;;;4.90;;
77322;SDS011;66384;51.052;9.850;2024-02-15T04:02:21;6.10;;;4.00;;
77322;SDS011;66384;51.052;9.850;2024-02-15T04:05:00;6.90;;;4.10;;
77322;SDS011;66384;51.052;9.850;2024-02-15T04:07:40;7.50;;;4.40;;
77322;SDS011;66384;51.052;9.850;2024-02-15T04:10:16;5.40;;;3.60;;
77322;SDS011;66384;51.052;9.850;2024-02-15T04:12:53;6.70;;;4.50;;
77322;SDS011;66384;51.052;9.850;2024-02-15T04:15:30;7.90;;;4.90;;
77322;SDS011;66384;51.052;9.850;2024-02-15T04:18:08;7.90;;;4.60;;
77322;SDS011;66384;51.052;9.850;2024-02-15T04:20:45;5.70;;;3.80;;
77322;SDS011;66384;51.052;9.850;2024-02-15T04:23:22;8.20;;;4.20;;
77322;SDS011;66384;51.052;9.850;2024-02-15T04:26:00;6.10;;;4.20;;
77322;SDS011;66384;51.052;9.850;2024-02-15T04:28:36;7.80;;;4.00;;
77322;SDS011;66384;51.052;9.850;2024-02-15T04:31:13;9.80;;;4.50;;
77322;SDS011;66384;51.052;9.850;2024-02-15T04:33:51;6.70;;;4.20;;
77322;SDS011;66384;51.052;9.850;2024-02-15T04:36:30;9.20;;;5.10;;
77322;SDS011;66384;51.052;9.850;2024-02-15T04:39:07;7.90;;;5.10;;
77322;SDS011;66384;51.052;9.850;2024-02-15T04:41:54;9.30;;;3.90;;
77322;SDS011;66384;51.052;9.850;2024-02-15T04:47:06;7.10;;;4.50;;
77322;SDS011;66384;51.052;9.850;2024-02-15T04:49:43;9.30;;;5.60;;
77322;SDS011;66384;51.052;9.850;2024-02-15T04:52:20;8.10;;;4.40;;
77322;SDS011;66384;51.052;9.850;2024-02-15T04:54:57;11.70;;;4.80;;
77322;SDS011;66384;51.052;9.850;2024-02-15T04:57:35;10.90;;;5.70;;
77322;SDS011;66384;51.052;9.850;2024-02-15T05:00:13;8.50;;;4.90;;
77322;SDS011;66384;51.052;9.850;2024-02-15T05:02:52;10.60;;;5.40;;
77322;SDS011;66384;51.052;9.850;2024-02-15T05:05:29;11.50;;;5.40;;
77322;SDS011;66384;51.052;9.850;2024-02-15T05:08:06;7.30;;;4.20;;
77322;SDS011;66384;51.052;9.850;2024-02-15T05:10:43;12.70;;;5.60;;
77322;SDS011;66384;51.052;9.850;2024-02-15T05:13:23;10.40;;;5.20;;
77322;SDS011;66384;51.052;9.850;2024-02-15T05:16:00;10.40;;;5.20;;
77322;SDS011;66384;51.052;9.850;2024-02-15T05:21:11;7.70;;;5.10;;
77322;SDS011;66384;51.052;9.850;2024-02-15T05:23:48;6.70;;;4.30;;
77322;SDS011;66384;51.052;9.850;2024-02-15T05:26:26;8.90;;;5.60;;
77322;SDS011;66384;51.052;9.850;2024-02-15T05:29:02;8.60;;;5.40;;
77322;SDS011;66384;51.052;9.850;2024-02-15T05:31:39;8.20;;;5.50;;
77322;SDS011;66384;51.052;9.850;2024-02-15T05:34:16;7.80;;;5.70;;
77322;SDS011;66384;51.052;9.850;2024-02-15T05:36:55;8.50;;;5.60;;
77322;SDS011;66384;51.052;9.850;2024-02-15T05:39:31;9.90;;;5.90;;
77322;SDS011;66384;51.052;9.850;2024-02-15T05:42:08;8.00;;;4.90;;
77322;SDS011;66384;51.052;9.850;2024-02-15T05:44:45;8.40;;;5.30;;
77322;SDS011;66384;51.052;9.850;2024-02-15T05:47:21;9.90;;;5.50;;
77322;SDS011;66384;51.052;9.850;2024-02-15T05:49:58;9.70;;;6.40;;
77322;SDS011;66384;51.052;9.850;2024-02-15T05:52:37;8.90;;;5.20;;
77322;SDS011;66384;51.052;9.850;2024-02-15T05:57:49;10.00;;;5.90;;
77322;SDS011;66384;51.052;9.850;2024-02-15T06:00:25;9.80;;;5.60;;
77322;SDS011;66384;51.052;9.850;2024-02-15T06:03:06;8.80;;;5.80;;
77322;SDS011;66384;51.052;9.850;2024-02-15T06:05:43;9.90;;;6.20;;
77322;SDS011;66384;51.052;9.850;2024-02-15T06:08:19;9.20;;;4.90;;
77322;SDS011;66384;51.052;9.850;2024-02-15T06:10:56;10.50;;;5.40;;
77322;SDS011;66384;51.052;9.850;2024-02-15T06:13:34;9.60;;;5.30;;
77322;SDS011;66384;51.052;9.850;2024-02-15T06:16:10;8.70;;;5.40;;
77322;SDS011;66384;51.052;9.850;2024-02-15T06:18:46;9.50;;;6.80;;
77322;SDS011;66384;51.052;9.850;2024-02-15T06:21:23;11.50;;;8.80;;
77322;SDS011;66384;51.052;9.850;2024-02-15T06:24:00;14.10;;;9.20;;
77322;SDS011;66384;51.052;9.850;2024-02-15T06:26:37;14.90;;;9.00;;
77322;SDS011;66384;51.052;9.850;2024-02-15T06:29:18;9.90;;;6.70;;
77322;SDS011;66384;51.052;9.850;2024-02-15T06:32:07;10.40;;;6.40;;
77322;SDS011;66384;51.052;9.850;2024-02-15T06:34:55;13.10;;;8.00;;
77322;SDS011;66384;51.052;9.850;2024-02-15T06:37:44;31.30;;;20.20;;
77322;SDS011;66384;51.052;9.850;2024-02-15T06:40:33;19.20;;;12.40;;
77322;SDS011;66384;51.052;9.850;2024-02-15T06:43:09;12.20;;;8.10;;
77322;SDS011;66384;51.052;9.850;2024-02-15T06:45:46;10.60;;;6.50;;
77322;SDS011;66384;51.052;9.850;2024-02-15T06:48:23;9.80;;;6.10;;
77322;SDS011;66384;51.052;9.850;2024-02-15T06:51:00;7.50;;;5.50;;
77322;SDS011;66384;51.052;9.850;2024-02-15T06:53:39;11.30;;;6.60;;
77322;SDS011;66384;51.052;9.850;2024-02-15T06:56:15;8.00;;;5.10;;
77322;SDS011;66384;51.052;9.850;2024-02-15T06:58:52;9.40;;;5.70;;
77322;SDS011;66384;51.052;9.850;2024-02-15T07:01:29;9.20;;;4.90;;
77322;SDS011;66384;51.052;9.850;2024-02-15T07:04:05;11.40;;;5.60;;
77322;SDS011;66384;51.052;9.850;2024-02-15T07:06:42;10.10;;;5.80;;
77322;SDS011;66384;51.052;9.850;2024-02-15T07:09:20;9.80;;;5.40;;
77322;SDS011;66384;51.052;9.850;2024-02-15T07:11:58;8.20;;;5.60;;
77322;SDS011;66384;51.052;9.850;2024-02-15T07:14:35;15.20;;;5.40;;
77322;SDS011;66384;51.052;9.850;2024-02-15T07:17:16;7.70;;;4.70;;
77322;SDS011;66384;51.052;9.850;2024-02-15T07:19:54;8.40;;;4.50;;
77322;SDS011;66384;51.052;9.850;2024-02-15T07:22:31;7.90;;;5.20;;
77322;SDS011;66384;51.052;9.850;2024-02-15T07:25:09;6.90;;;5.30;;
77322;SDS011;66384;51.052;9.850;2024-02-15T07:27:46;6.80;;;5.00;;
77322;SDS011;66384;51.052;9.850;2024-02-15T07:32:57;7.50;;;4.60;;
77322;SDS011;66384;51.052;9.850;2024-02-15T07:35:34;6.40;;;4.50;;
77322;SDS011;66384;51.052;9.850;2024-02-15T07:38:10;7.30;;;4.50;;
77322;SDS011;66384;51.052;9.850;2024-02-15T07:40:47;8.80;;;5.20;;
77322;SDS011;66384;51.052;9.850;2024-02-15T07:43:24;6.10;;;4.30;;
77322;SDS011;66384;51.052;9.850;2024-02-15T07:46:01;7.00;;;5.30;;
77322;SDS011;66384;51.052;9.850;2024-02-15T07:48:38;7.90;;;5.00;;
77322;SDS011;66384;51.052;9.850;2024-02-15T07:51:17;7.50;;;4.70;;
77322;SDS011;66384;51.052;9.850;2024-02-15T07:53:56;11.90;;;5.60;;
77322;SDS011;66384;51.052;9.850;2024-02-15T07:59:07;10.50;;;6.30;;
77322;SDS011;66384;51.052;9.850;2024-02-15T08:01:43;9.60;;;6.40;;
77322;SDS011;66384;51.052;9.850;2024-02-15T08:04:21;8.10;;;5.30;;
77322;SDS011;66384;51.052;9.850;2024-02-15T08:06:59;6.80;;;5.50;;
77322;SDS011;66384;51.052;9.850;2024-02-15T08:09:36;6.80;;;4.60;;
77322;SDS011;66384;51.052;9.850;2024-02-15T08:12:15;7.70;;;5.10;;
77322;SDS011;66384;51.052;9.850;2024-02-15T08:14:52;7.90;;;4.70;;
77322;SDS011;66384;51.052;9.850;2024-02-15T08:20:04;8.60;;;4.80;;
77322;SDS011;66384;51.052;9.850;2024-02-15T08:22:44;8.80;;;5.60;;
77322;SDS011;66384;51.052;9.850;2024-02-15T08:27:56;7.70;;;5.00;;
77322;SDS011;66384;51.052;9.850;2024-02-15T08:30:36;7.80;;;4.50;;
77322;SDS011;66384;51.052;9.850;2024-02-15T08:33:13;8.20;;;5.20;;
77322;SDS011;66384;51.052;9.850;2024-02-15T08:38:26;8.60;;;5.30;;
77322;SDS011;66384;51.052;9.850;2024-02-15T08:41:05;10.70;;;5.60;;
77322;SDS011;66384;51.052;9.850;2024-02-15T08:43:42;9.00;;;6.00;;
77322;SDS011;66384;51.052;9.850;2024-02-15T08:46:19;7.40;;;5.20;;
77322;SDS011;66384;51.052;9.850;2024-02-15T08:48:57;8.70;;;5.50;;
77322;SDS011;66384;51.052;9.850;2024-02-15T08:51:34;8.70;;;5.50;;
77322;SDS011;66384;51.052;9.850;2024-02-15T08:54:12;7.00;;;4.80;;
77322;SDS011;66384;51.052;9.850;2024-02-15T08:56:49;9.70;;;5.70;;
77322;SDS011;66384;51.052;9.850;2024-02-15T08:59:26;7.90;;;5.40;;
77322;SDS011;66384;51.052;9.850;2024-02-15T09:02:02;15.10;;;9.70;;
77322;SDS011;66384;51.052;9.850;2024-02-15T09:04:40;12.40;;;7.70;;
77322;SDS011;66384;51.052;9.850;2024-02-15T09:07:17;9.80;;;6.90;;
77322;SDS011;66384;51.052;9.850;2024-02-15T09:09:54;8.80;;;6.40;;
77322;SDS011;66384;51.052;9.850;2024-02-15T09:12:31;10.80;;;6.80;;
77322;SDS011;66384;51.052;9.850;2024-02-15T09:15:08;9.80;;;5.50;;
77322;SDS011;66384;51.052;9.850;2024-02-15T09:17:45;11.10;;;6.70;;
77322;SDS011;66384;51.052;9.850;2024-02-15T09:20:26;12.90;;;7.50;;
77322;SDS011;66384;51.052;9.850;2024-02-15T09:23:04;11.10;;;5.90;;
77322;SDS011;66384;51.052;9.850;2024-02-15T09:25:43;7.10;;;5.80;;
77322;SDS011;66384;51.052;9.850;2024-02-15T09:28:20;10.50;;;6.20;;
77322;SDS011;66384;51.052;9.850;2024-02-15T09:30:57;7.70;;;5.90;;
77322;SDS011;66384;51.052;9.850;2024-02-15T09:33:33;11.00;;;6.40;;
77322;SDS011;66384;51.052;9.850;2024-02-15T09:36:10;10.10;;;6.00;;
77322;SDS011;66384;51.052;9.850;2024-02-15T09:38:47;14.40;;;6.40;;
77322;SDS011;66384;51.052;9.850;2024-02-15T09:41:25;9.80;;;6.80;;
77322;SDS011;66384;51.052;9.850;2024-02-15T09:44:04;10.00;;;6.50;;
77322;SDS011;66384;51.052;9.850;2024-02-15T09:46:42;12.10;;;6.80;;
77322;SDS011;66384;51.052;9.850;2024-02-15T09:49:20;10.90;;;6.70;;
77322;SDS011;66384;51.052;9.850;2024-02-15T09:51:58;12.10;;;7.30;;
77322;SDS011;66384;51.052;9.850;2024-02-15T09:54:36;11.20;;;7.40;;
77322;SDS011;66384;51.052;9.850;2024-02-15T09:57:16;10.70;;;6.70;;
77322;SDS011;66384;51.052;9.850;2024-02-15T09:59:53;10.10;;;7.00;;
77322;SDS011;66384;51.052;9.850;2024-02-15T10:05:07;11.40;;;7.30;;
77322;SDS011;66384;51.052;9.850;2024-02-15T10:07:45;9.20;;;6.70;;
77322;SDS011;66384;51.052;9.850;2024-02-15T10:10:22;11.30;;;7.10;;
77322;SDS011;66384;51.052;9.850;2024-02-15T10:12:59;15.40;;;7.60;;
77322;SDS011;66384;51.052;9.850;2024-02-15T10:15:36;9.40;;;6.70;;
77322;SDS011;66384;51.052;9.850;2024-02-15T10:18:15;12.10;;;7.40;;
77322;SDS011;66384;51.052;9.850;2024-02-15T10:20:59;16.20;;;7.20;;
77322;SDS011;66384;51.052;9.850;2024-02-15T10:23:36;11.10;;;7.20;;
77322;SDS011;66384;51.052;9.850;2024-02-15T10:26:21;10.20;;;7.10;;
77322;SDS011;66384;51.052;9.850;2024-02-15T10:29:07;10.80;;;7.40;;
77322;SDS011;66384;51.052;9.850;2024-02-15T10:31:54;10.00;;;7.40;;
77322;SDS011;66384;51.052;9.850;2024-02-15T10:34:32;13.60;;;7.80;;
77322;SDS011;66384;51.052;9.850;2024-02-15T10:37:16;11.10;;;7.70;;
77322;SDS011;66384;51.052;9.850;2024-02-15T10:40:01;14.40;;;7.20;;
77322;SDS011;66384;51.052;9.850;2024-02-15T10:42:44;13.20;;;7.90;;
77322;SDS011;66384;51.052;9.850;2024-02-15T10:45:23;11.60;;;7.70;;
77322;SDS011;66384;51.052;9.850;2024-02-15T10:48:02;15.90;;;8.10;;
77322;SDS011;66384;51.052;9.850;2024-02-15T10:50:41;12.40;;;7.40;;
77322;SDS011;66384;51.052;9.850;2024-02-15T10:53:23;12.70;;;7.50;;
77322;SDS011;66384;51.052;9.850;2024-02-15T10:56:07;15.50;;;7.50;;
77322;SDS011;66384;51.052;9.850;2024-02-15T10:58:50;17.30;;;7.50;;
77322;SDS011;66384;51.052;9.850;2024-02-15T11:01:31;11.40;;;7.00;;
77322;SDS011;66384;51.052;9.850;2024-02-15T11:04:14;17.50;;;6.90;;
77322;SDS011;66384;51.052;9.850;2024-02-15T11:09:31;10.70;;;7.00;;
77322;SDS011;66384;51.052;9.850;2024-02-15T11:14:42;14.00;;;7.40;;
77322;SDS011;66384;51.052;9.850;2024-02-15T11:23:27;10.30;;;6.00;;
77322;SDS011;66384;51.052;9.850;2024-02-15T11:26:07;11.90;;;6.50;;
77322;SDS011;66384;51.052;9.850;2024-02-15T11:29:04;11.80;;;5.90;;
77322;SDS011;66384;51.052;9.850;2024-02-15T11:37:54;7.40;;;5.90;;
77322;SDS011;66384;51.052;9.850;2024-02-15T11:43:49;9.00;;;5.90;;
77322;SDS011;66384;51.052;9.850;2024-02-15T11:46:32;8.30;;;5.90;;
77322;SDS011;66384;51.052;9.850;2024-02-15T11:49:14;13.00;;;6.40;;
77322;SDS011;66384;51.052;9.850;2024-02-15T11:51:51;6.80;;;5.40;;
77322;SDS011;66384;51.052;9.850;2024-02-15T11:54:28;8.80;;;5.90;;
77322;SDS011;66384;51.052;9.850;2024-02-15T11:57:05;10.80;;;5.80;;
77322;SDS011;66384;51.052;9.850;2024-02-15T11:59:44;10.00;;;7.00;;
77322;SDS011;66384;51.052;9.850;2024-02-15T12:02:47;12.90;;;7.10;;
77322;SDS011;66384;51.052;9.850;2024-02-15T12:05:36;19.90;;;11.40;;
77322;SDS011;66384;51.052;9.850;2024-02-15T12:08:25;8.60;;;6.30;;
77322;SDS011;66384;51.052;9.850;2024-02-15T12:11:16;13.00;;;6.70;;
77322;SDS011;66384;51.052;9.850;2024-02-15T12:14:05;8.70;;;6.70;;
77322;SDS011;66384;51.052;9.850;2024-02-15T12:17:06;15.00;;;9.30;;
77322;SDS011;66384;51.052;9.850;2024-02-15T12:19:57;7.90;;;5.70;;
77322;SDS011;66384;51.052;9.850;2024-02-15T12:22:42;9.90;;;5.60;;
77322;SDS011;66384;51.052;9.850;2024-02-15T12:25:21;9.50;;;4.70;;
77322;SDS011;66384;51.052;9.850;2024-02-15T12:27:58;9.00;;;5.70;;
77322;SDS011;66384;51.052;9.850;2024-02-15T12:30:37;8.80;;;5.30;;
77322;SDS011;66384;51.052;9.850;2024-02-15T12:33:15;8.40;;;5.70;;
77322;SDS011;66384;51.052;9.850;2024-02-15T12:36:03;7.50;;;5.20;;
77322;SDS011;66384;51.052;9.850;2024-02-15T12:38:40;8.50;;;5.20;;
77322;SDS011;66384;51.052;9.850;2024-02-15T12:41:23;8.10;;;6.10;;
77322;SDS011;66384;51.052;9.850;2024-02-15T12:44:01;7.60;;;5.60;;
77322;SDS011;66384;51.052;9.850;2024-02-15T12:46:38;9.60;;;4.30;;
77322;SDS011;66384;51.052;9.850;2024-02-15T12:49:28;7.90;;;4.70;;
77322;SDS011;66384;51.052;9.850;2024-02-15T12:55:13;6.90;;;4.60;;
77322;SDS011;66384;51.052;9.850;2024-02-15T12:57:52;9.30;;;5.20;;
77322;SDS011;66384;51.052;9.850;2024-02-15T13:00:29;10.40;;;5.00;;
77322;SDS011;66384;51.052;9.850;2024-02-15T13:03:07;10.50;;;6.30;;
77322;SDS011;66384;51.052;9.850;2024-02-15T13:05:47;5.80;;;4.50;;
77322;SDS011;66384;51.052;9.850;2024-02-15T13:10:57;7.00;;;3.80;;
77322;SDS011;66384;51.052;9.850;2024-02-15T13:13:34;8.80;;;5.50;;
77322;SDS011;66384;51.052;9.850;2024-02-15T13:16:12;7.80;;;4.10;;
77322;SDS011;66384;51.052;9.850;2024-02-15T13:18:51;9.10;;;5.70;;
77322;SDS011;66384;51.052;9.850;2024-02-15T13:21:28;9.90;;;5.00;;
77322;SDS011;66384;51.052;9.850;2024-02-15T13:24:05;9.10;;;4.80;;
77322;SDS011;66384;51.052;9.850;2024-02-15T13:26:42;6.30;;;4.00;;
77322;SDS011;66384;51.052;9.850;2024-02-15T13:29:24;8.00;;;4.50;;
77322;SDS011;66384;51.052;9.850;2024-02-15T13:32:03;6.80;;;4.30;;
77322;SDS011;66384;51.052;9.850;2024-02-15T13:34:43;9.50;;;4.00;;
77322;SDS011;66384;51.052;9.850;2024-02-15T13:37:22;5.40;;;3.60;;
77322;SDS011;66384;51.052;9.850;2024-02-15T13:39:58;8.30;;;4.30;;
77322;SDS011;66384;51.052;9.850;2024-02-15T13:42:44;7.00;;;4.90;;
77322;SDS011;66384;51.052;9.850;2024-02-15T13:45:24;7.30;;;3.80;;
77322;SDS011;66384;51.052;9.850;2024-02-15T13:48:04;4.70;;;3.40;;
77322;SDS011;66384;51.052;9.850;2024-02-15T13:50:43;5.50;;;3.60;;
77322;SDS011;66384;51.052;9.850;2024-02-15T13:53:20;5.50;;;3.50;;
77322;SDS011;66384;51.052;9.850;2024-02-15T13:55:59;5.30;;;3.70;;
77322;SDS011;66384;51.052;9.850;2024-02-15T13:58:36;6.20;;;4.30;;
77322;SDS011;66384;51.052;9.850;2024-02-15T14:01:13;7.40;;;3.50;;
77322;SDS011;66384;51.052;9.850;2024-02-15T14:06:24;7.30;;;3.20;;
77322;SDS011;66384;51.052;9.850;2024-02-15T14:09:01;10.50;;;3.80;;
77322;SDS011;66384;51.052;9.850;2024-02-15T14:11:38;9.70;;;4.90;;
77322;SDS011;66384;51.052;9.850;2024-02-15T14:14:15;11.00;;;5.50;;
77322;SDS011;66384;51.052;9.850;2024-02-15T14:16:51;10.40;;;6.40;;
77322;SDS011;66384;51.052;9.850;2024-02-15T14:19:28;9.50;;;5.20;;
77322;SDS011;66384;51.052;9.850;2024-02-15T14:22:05;5.90;;;4.10;;
77322;SDS011;66384;51.052;9.850;2024-02-15T14:24:46;4.80;;;2.60;;
77322;SDS011;66384;51.052;9.850;2024-02-15T14:27:23;8.80;;;3.40;;
77322;SDS011;66384;51.052;9.850;2024-02-15T14:30:00;5.90;;;3.00;;
77322;SDS011;66384;51.052;9.850;2024-02-15T14:32:49;6.70;;;3.60;;
77322;SDS011;66384;51.052;9.850;2024-02-15T14:35:39;4.70;;;2.70;;
77322;SDS011;66384;51.052;9.850;2024-02-15T14:38:15;5.00;;;2.90;;
77322;SDS011;66384;51.052;9.850;2024-02-15T14:40:53;5.40;;;3.10;;
77322;SDS011;66384;51.052;9.850;2024-02-15T14:43:32;6.10;;;3.50;;
77322;SDS011;66384;51.052;9.850;2024-02-15T14:46:08;5.50;;;2.30;;
77322;SDS011;66384;51.052;9.850;2024-02-15T14:48:45;3.20;;;2.20;;
77322;SDS011;66384;51.052;9.850;2024-02-15T14:51:21;3.90;;;1.70;;
77322;SDS011;66384;51.052;9.850;2024-02-15T14:53:58;3.80;;;2.20;;
77322;SDS011;66384;51.052;9.850;2024-02-15T14:56:35;5.70;;;3.00;;
77322;SDS011;66384;51.052;9.850;2024-02-15T14:59:12;4.40;;;2.50;;
77322;SDS011;66384;51.052;9.850;2024-02-15T15:01:49;5.60;;;2.70;;
77322;SDS011;66384;51.052;9.850;2024-02-15T15:04:32;4.50;;;1.90;;
77322;SDS011;66384;51.052;9.850;2024-02-15T15:07:28;7.10;;;2.70;;
77322;SDS011;66384;51.052;9.850;2024-02-15T15:10:17;5.60;;;2.60;;
77322;SDS011;66384;51.052;9.850;2024-02-15T15:13:05;4.80;;;2.00;;
77322;SDS011;66384;51.052;9.850;2024-02-15T15:15:44;4.60;;;1.80;;
77322;SDS011;66384;51.052;9.850;2024-02-15T15:18:20;6.50;;;2.40;;
77322;SDS011;66384;51.052;9.850;2024-02-15T15:20:58;4.90;;;2.10;;
77322;SDS011;66384;51.052;9.850;2024-02-15T15:23:35;3.30;;;2.50;;
77322;SDS011;66384;51.052;9.850;2024-02-15T15:26:12;4.20;;;2.00;;
77322;SDS011;66384;51.052;9.850;2024-02-15T15:28:55;6.30;;;2.20;;
77322;SDS011;66384;51.052;9.850;2024-02-15T15:31:33;3.00;;;1.60;;
77322;SDS011;66384;51.052;9.850;2024-02-15T15:34:10;4.90;;;2.20;;
77322;SDS011;66384;51.052;9.850;2024-02-15T15:36:47;7.70;;;2.50;;
77322;SDS011;66384;51.052;9.850;2024-02-15T15:39:25;6.00;;;3.40;;
77322;SDS011;66384;51.052;9.850;2024-02-15T15:42:06;6.60;;;4.00;;
77322;SDS011;66384;51.052;9.850;2024-02-15T15:44:43;5.30;;;3.60;;
77322;SDS011;66384;51.052;9.850;2024-02-15T15:47:20;5.10;;;3.40;;
77322;SDS011;66384;51.052;9.850;2024-02-15T15:49:57;5.30;;;3.60;;
77322;SDS011;66384;51.052;9.850;2024-02-15T15:52:33;6.90;;;3.40;;
77322;SDS011;66384;51.052;9.850;2024-02-15T15:55:11;6.10;;;3.10;;
77322;SDS011;66384;51.052;9.850;2024-02-15T15:57:47;5.90;;;3.10;;
77322;SDS011;66384;51.052;9.850;2024-02-15T16:00:24;12.60;;;3.00;;
77322;SDS011;66384;51.052;9.850;2024-02-15T16:05:37;4.00;;;2.30;;
77322;SDS011;66384;51.052;9.850;2024-02-15T16:08:13;4.20;;;2.00;;
77322;SDS011;66384;51.052;9.850;2024-02-15T16:10:50;3.40;;;1.70;;
77322;SDS011;66384;51.052;9.850;2024-02-15T16:13:27;5.40;;;2.30;;
77322;SDS011;66384;51.052;9.850;2024-02-15T16:16:04;4.20;;;2.60;;
77322;SDS011;66384;51.052;9.850;2024-02-15T16:18:42;5.60;;;2.80;;
77322;SDS011;66384;51.052;9.850;2024-02-15T16:21:19;6.80;;;3.00;;
77322;SDS011;66384;51.052;9.850;2024-02-15T16:26:30;5.50;;;3.00;;
77322;SDS011;66384;51.052;9.850;2024-02-15T16:29:07;5.50;;;2.40;;
77322;SDS011;66384;51.052;9.850;2024-02-15T16:31:43;6.80;;;3.00;;
77322;SDS011;66384;51.052;9.850;2024-02-15T16:36:55;7.40;;;3.90;;
77322;SDS011;66384;51.052;9.850;2024-02-15T16:39:34;5.80;;;3.20;;
77322;SDS011;66384;51.052;9.850;2024-02-15T16:42:13;6.60;;;3.10;;
77322;SDS011;66384;51.052;9.850;2024-02-15T16:44:49;5.90;;;3.10;;
77322;SDS011;66384;51.052;9.850;2024-02-15T16:47:27;5.50;;;3.70;;
77322;SDS011;66384;51.052;9.850;2024-02-15T16:50:06;10.60;;;7.10;;
77322;SDS011;66384;51.052;9.850;2024-02-15T16:52:44;12.00;;;7.70;;
77322;SDS011;66384;51.052;9.850;2024-02-15T16:55:22;6.70;;;4.40;;
77322;SDS011;66384;51.052;9.850;2024-02-15T16:58:03;6.00;;;3.70;;
77322;SDS011;66384;51.052;9.850;2024-02-15T17:00:41;7.60;;;3.60;;
77322;SDS011;66384;51.052;9.850;2024-02-15T17:03:18;5.80;;;3.50;;